sensor_id;sensor_type;location;lat;lon;timestamp;P1;durP1;ratioP1;P2;durP2;ratioP2
72882;SDS011;61017;37.812;-122.286;2023-03-01T00:00:09;3.28;;;1.00;;
72882;SDS011;61017;37.812;-122.286;2023-03-01T00:01:42;4.60;;;1.33;;
72882;SDS011;61017;37.812;-122.286;2023-03-01T00:03:13;7.85;;;1.52;;
72882;SDS011;61017;37.812;-122.286;2023-03-01T00:04:54;6.75;;;1.30;;
72882;SDS011;61017;37.812;-122.286;2023-03-01T00:06:26;4.28;;;1.00;;
72882;SDS011;61017;37.812;-122.286;2023-03-01T00:07:58;4.80;;;0.85;;
72882;SDS011;61017;37.812;-122.286;2023-03-01T00:09:30;3.47;;;0.95;;
72882;SDS011;61017;37.812;-122.286;2023-03-01T00:11:23;3.40;;;0.95;;
72882;SDS011;61017;37.812;-122.286;2023-03-01T00:13:00;4.22;;;1.05;;
72882;SDS011;61017;37.812;-122.286;2023-03-01T00:14:35;3.92;;;1.10;;
72882;SDS011;61017;37.812;-122.286;2023-03-01T00:16:08;4.87;;;1.33;;
72882;SDS011;61017;37.812;-122.286;2023-03-01T00:17:47;2.50;;;1.00;;
72882;SDS011;61017;37.812;-122.286;2023-03-01T00:19:19;4.43;;;1.10;;
72882;SDS011;61017;37.812;-122.286;2023-03-01T00:20:54;3.67;;;0.82;;
72882;SDS011;61017;37.812;-122.286;2023-03-01T00:22:27;4.53;;;0.95;;
72882;SDS011;61017;37.812;-122.286;2023-03-01T00:23:59;4.28;;;1.10;;
72882;SDS011;61017;37.812;-122.286;2023-03-01T00:25:31;3.78;;;1.05;;
72882;SDS011;61017;37.812;-122.286;2023-03-01T00:27:03;4.07;;;1.10;;
72882;SDS011;61017;37.812;-122.286;2023-03-01T00:28:34;3.85;;;1.08;;
72882;SDS011;61017;37.812;-122.286;2023-03-01T00:30:06;4.07;;;1.10;;
72882;SDS011;61017;37.812;-122.286;2023-03-01T00:31:41;3.20;;;0.88;;
72882;SDS011;61017;37.812;-122.286;2023-03-01T00:33:14;4.05;;;1.20;;
72882;SDS011;61017;37.812;-122.286;2023-03-01T00:34:46;4.32;;;0.90;;
72882;SDS011;61017;37.812;-122.286;2023-03-01T00:36:18;4.13;;;0.90;;
72882;SDS011;61017;37.812;-122.286;2023-03-01T00:37:53;3.50;;;0.98;;
72882;SDS011;61017;37.812;-122.286;2023-03-01T00:39:27;3.67;;;0.80;;
72882;SDS011;61017;37.812;-122.286;2023-03-01T00:41:05;3.03;;;0.80;;
72882;SDS011;61017;37.812;-122.286;2023-03-01T00:42:42;2.97;;;0.88;;
72882;SDS011;61017;37.812;-122.286;2023-03-01T00:44:13;2.33;;;0.70;;
72882;SDS011;61017;37.812;-122.286;2023-03-01T00:45:45;4.47;;;0.90;;
72882;SDS011;61017;37.812;-122.286;2023-03-01T00:47:17;2.97;;;0.90;;
72882;SDS011;61017;37.812;-122.286;2023-03-01T00:48:54;3.03;;;0.70;;
72882;SDS011;61017;37.812;-122.286;2023-03-01T00:50:29;2.53;;;0.70;;
72882;SDS011;61017;37.812;-122.286;2023-03-01T00:52:04;4.15;;;1.00;;
72882;SDS011;61017;37.812;-122.286;2023-03-01T00:53:36;2.90;;;0.90;;
72882;SDS011;61017;37.812;-122.286;2023-03-01T00:55:08;2.78;;;0.85;;
72882;SDS011;61017;37.812;-122.286;2023-03-01T00:56:43;3.63;;;0.90;;
72882;SDS011;61017;37.812;-122.286;2023-03-01T00:58:15;1.88;;;0.70;;
72882;SDS011;61017;37.812;-122.286;2023-03-01T00:59:47;3.25;;;0.70;;
72882;SDS011;61017;37.812;-122.286;2023-03-01T01:01:19;4.32;;;1.00;;
72882;SDS011;61017;37.812;-122.286;2023-03-01T01:02:53;3.83;;;0.82;;
72882;SDS011;61017;37.812;-122.286;2023-03-01T01:04:25;4.72;;;0.93;;
72882;SDS011;61017;37.812;-122.286;2023-03-01T01:05:57;2.88;;;0.82;;
72882;SDS011;61017;37.812;-122.286;2023-03-01T01:07:28;5.38;;;1.02;;
72882;SDS011;61017;37.812;-122.286;2023-03-01T01:09:04;2.38;;;0.80;;
72882;SDS011;61017;37.812;-122.286;2023-03-01T01:10:37;2.55;;;0.82;;
72882;SDS011;61017;37.812;-122.286;2023-03-01T01:12:09;3.13;;;0.70;;
72882;SDS011;61017;37.812;-122.286;2023-03-01T01:13:43;3.28;;;0.80;;
72882;SDS011;61017;37.812;-122.286;2023-03-01T01:15:19;2.70;;;1.00;;
72882;SDS011;61017;37.812;-122.286;2023-03-01T01:17:24;2.53;;;0.80;;
72882;SDS011;61017;37.812;-122.286;2023-03-01T01:18:54;4.07;;;0.90;;
72882;SDS011;61017;37.812;-122.286;2023-03-01T01:20:26;2.97;;;0.60;;
72882;SDS011;61017;37.812;-122.286;2023-03-01T01:21:58;3.70;;;1.00;;
72882;SDS011;61017;37.812;-122.286;2023-03-01T01:23:30;2.90;;;0.90;;
72882;SDS011;61017;37.812;-122.286;2023-03-01T01:25:03;3.53;;;0.88;;
72882;SDS011;61017;37.812;-122.286;2023-03-01T01:26:35;2.38;;;0.70;;
72882;SDS011;61017;37.812;-122.286;2023-03-01T01:28:11;3.88;;;0.90;;
72882;SDS011;61017;37.812;-122.286;2023-03-01T01:29:46;2.03;;;0.63;;
72882;SDS011;61017;37.812;-122.286;2023-03-01T01:31:18;2.70;;;0.63;;
72882;SDS011;61017;37.812;-122.286;2023-03-01T01:35:56;2.08;;;0.50;;
72882;SDS011;61017;37.812;-122.286;2023-03-01T01:37:34;3.15;;;0.60;;
72882;SDS011;61017;37.812;-122.286;2023-03-01T01:39:05;1.83;;;0.75;;
72882;SDS011;61017;37.812;-122.286;2023-03-01T01:40:46;2.65;;;0.70;;
72882;SDS011;61017;37.812;-122.286;2023-03-01T01:42:22;2.65;;;0.70;;
72882;SDS011;61017;37.812;-122.286;2023-03-01T01:44:13;2.67;;;0.70;;
72882;SDS011;61017;37.812;-122.286;2023-03-01T01:45:50;1.85;;;0.57;;
72882;SDS011;61017;37.812;-122.286;2023-03-01T01:47:25;1.80;;;0.68;;
72882;SDS011;61017;37.812;-122.286;2023-03-01T01:49:01;1.88;;;0.60;;
72882;SDS011;61017;37.812;-122.286;2023-03-01T01:50:56;2.03;;;0.60;;
72882;SDS011;61017;37.812;-122.286;2023-03-01T01:52:31;2.50;;;0.68;;
72882;SDS011;61017;37.812;-122.286;2023-03-01T01:54:14;1.88;;;0.60;;
72882;SDS011;61017;37.812;-122.286;2023-03-01T01:55:54;3.25;;;0.60;;
72882;SDS011;61017;37.812;-122.286;2023-03-01T01:57:32;1.67;;;0.70;;
72882;SDS011;61017;37.812;-122.286;2023-03-01T01:59:10;2.05;;;0.60;;
72882;SDS011;61017;37.812;-122.286;2023-03-01T02:00:43;1.42;;;0.63;;
72882;SDS011;61017;37.812;-122.286;2023-03-01T02:02:15;2.70;;;0.70;;
72882;SDS011;61017;37.812;-122.286;2023-03-01T02:03:47;2.23;;;0.70;;
72882;SDS011;61017;37.812;-122.286;2023-03-01T02:05:20;1.42;;;0.55;;
72882;SDS011;61017;37.812;-122.286;2023-03-01T02:07:26;1.95;;;0.70;;
72882;SDS011;61017;37.812;-122.286;2023-03-01T02:09:05;2.20;;;0.70;;
72882;SDS011;61017;37.812;-122.286;2023-03-01T02:10:42;1.88;;;0.52;;
72882;SDS011;61017;37.812;-122.286;2023-03-01T02:12:18;1.42;;;0.57;;
72882;SDS011;61017;37.812;-122.286;2023-03-01T02:13:53;2.13;;;0.80;;
72882;SDS011;61017;37.812;-122.286;2023-03-01T02:15:31;1.30;;;0.50;;
72882;SDS011;61017;37.812;-122.286;2023-03-01T02:17:09;2.30;;;0.63;;
72882;SDS011;61017;37.812;-122.286;2023-03-01T02:18:42;1.40;;;0.50;;
72882;SDS011;61017;37.812;-122.286;2023-03-01T02:22:00;1.60;;;0.50;;
72882;SDS011;61017;37.812;-122.286;2023-03-01T02:23:41;1.50;;;0.50;;
72882;SDS011;61017;37.812;-122.286;2023-03-01T02:26:54;2.13;;;0.63;;
72882;SDS011;61017;37.812;-122.286;2023-03-01T02:30:06;1.27;;;0.60;;
72882;SDS011;61017;37.812;-122.286;2023-03-01T02:31:38;1.33;;;0.50;;
72882;SDS011;61017;37.812;-122.286;2023-03-01T02:33:09;1.00;;;0.60;;
72882;SDS011;61017;37.812;-122.286;2023-03-01T02:34:42;1.33;;;0.50;;
72882;SDS011;61017;37.812;-122.286;2023-03-01T02:36:15;2.25;;;0.50;;
72882;SDS011;61017;37.812;-122.286;2023-03-01T02:37:51;3.70;;;0.70;;
72882;SDS011;61017;37.812;-122.286;2023-03-01T02:39:31;1.52;;;0.70;;
72882;SDS011;61017;37.812;-122.286;2023-03-01T02:41:13;1.55;;;0.60;;
72882;SDS011;61017;37.812;-122.286;2023-03-01T02:42:53;0.88;;;0.50;;
72882;SDS011;61017;37.812;-122.286;2023-03-01T02:44:27;1.25;;;0.60;;
72882;SDS011;61017;37.812;-122.286;2023-03-01T02:46:04;1.23;;;0.52;;
72882;SDS011;61017;37.812;-122.286;2023-03-01T02:47:44;1.35;;;0.52;;
72882;SDS011;61017;37.812;-122.286;2023-03-01T02:49:26;1.17;;;0.47;;
72882;SDS011;61017;37.812;-122.286;2023-03-01T02:51:04;0.88;;;0.47;;
72882;SDS011;61017;37.812;-122.286;2023-03-01T02:55:49;2.03;;;0.70;;
72882;SDS011;61017;37.812;-122.286;2023-03-01T02:57:21;1.80;;;0.50;;
72882;SDS011;61017;37.812;-122.286;2023-03-01T02:58:54;1.80;;;0.60;;
72882;SDS011;61017;37.812;-122.286;2023-03-01T03:00:27;1.73;;;0.52;;
72882;SDS011;61017;37.812;-122.286;2023-03-01T03:02:03;1.63;;;0.57;;
72882;SDS011;61017;37.812;-122.286;2023-03-01T03:03:35;5.05;;;0.80;;
72882;SDS011;61017;37.812;-122.286;2023-03-01T03:05:11;1.95;;;0.60;;
72882;SDS011;61017;37.812;-122.286;2023-03-01T03:06:49;1.60;;;0.60;;
72882;SDS011;61017;37.812;-122.286;2023-03-01T03:08:21;2.80;;;0.60;;
72882;SDS011;61017;37.812;-122.286;2023-03-01T03:09:53;1.42;;;0.55;;
72882;SDS011;61017;37.812;-122.286;2023-03-01T03:11:24;2.03;;;0.68;;
72882;SDS011;61017;37.812;-122.286;2023-03-01T03:13:00;2.67;;;0.70;;
72882;SDS011;61017;37.812;-122.286;2023-03-01T03:14:34;2.78;;;0.75;;
72882;SDS011;61017;37.812;-122.286;2023-03-01T03:16:06;1.13;;;0.50;;
72882;SDS011;61017;37.812;-122.286;2023-03-01T03:17:39;1.35;;;0.50;;
72882;SDS011;61017;37.812;-122.286;2023-03-01T03:19:14;2.38;;;0.65;;
72882;SDS011;61017;37.812;-122.286;2023-03-01T03:20:47;1.88;;;0.60;;
72882;SDS011;61017;37.812;-122.286;2023-03-01T03:22:19;2.50;;;0.70;;
72882;SDS011;61017;37.812;-122.286;2023-03-01T03:23:51;1.83;;;0.50;;
72882;SDS011;61017;37.812;-122.286;2023-03-01T03:25:26;6.60;;;0.80;;
72882;SDS011;61017;37.812;-122.286;2023-03-01T03:26:58;3.75;;;0.73;;
72882;SDS011;61017;37.812;-122.286;2023-03-01T03:28:33;3.75;;;0.60;;
72882;SDS011;61017;37.812;-122.286;2023-03-01T03:30:07;3.50;;;0.68;;
72882;SDS011;61017;37.812;-122.286;2023-03-01T03:31:41;6.72;;;0.80;;
72882;SDS011;61017;37.812;-122.286;2023-03-01T03:33:13;12.70;;;1.13;;
72882;SDS011;61017;37.812;-122.286;2023-03-01T03:34:44;12.90;;;1.10;;
72882;SDS011;61017;37.812;-122.286;2023-03-01T03:36:25;8.20;;;1.00;;
72882;SDS011;61017;37.812;-122.286;2023-03-01T03:37:57;7.25;;;0.90;;
72882;SDS011;61017;37.812;-122.286;2023-03-01T03:39:31;5.60;;;0.85;;
72882;SDS011;61017;37.812;-122.286;2023-03-01T03:41:04;11.55;;;0.80;;
72882;SDS011;61017;37.812;-122.286;2023-03-01T03:42:40;5.35;;;0.88;;
72882;SDS011;61017;37.812;-122.286;2023-03-01T03:44:33;4.15;;;0.80;;
72882;SDS011;61017;37.812;-122.286;2023-03-01T03:46:05;7.70;;;0.90;;
72882;SDS011;61017;37.812;-122.286;2023-03-01T03:47:37;6.78;;;0.80;;
72882;SDS011;61017;37.812;-122.286;2023-03-01T03:49:08;7.38;;;0.98;;
72882;SDS011;61017;37.812;-122.286;2023-03-01T03:50:40;10.00;;;1.20;;
72882;SDS011;61017;37.812;-122.286;2023-03-01T03:52:18;6.45;;;0.85;;
72882;SDS011;61017;37.812;-122.286;2023-03-01T03:53:50;31.50;;;2.05;;
72882;SDS011;61017;37.812;-122.286;2023-03-01T03:55:22;23.88;;;2.22;;
72882;SDS011;61017;37.812;-122.286;2023-03-01T03:56:53;51.65;;;2.55;;
72882;SDS011;61017;37.812;-122.286;2023-03-01T03:58:25;21.92;;;1.92;;
72882;SDS011;61017;37.812;-122.286;2023-03-01T03:59:57;24.30;;;1.60;;
72882;SDS011;61017;37.812;-122.286;2023-03-01T04:01:31;62.22;;;3.00;;
72882;SDS011;61017;37.812;-122.286;2023-03-01T04:03:03;64.80;;;4.45;;
72882;SDS011;61017;37.812;-122.286;2023-03-01T04:04:35;34.25;;;2.22;;
72882;SDS011;61017;37.812;-122.286;2023-03-01T04:06:06;40.72;;;2.67;;
72882;SDS011;61017;37.812;-122.286;2023-03-01T04:07:38;39.05;;;2.83;;
72882;SDS011;61017;37.812;-122.286;2023-03-01T04:09:10;134.30;;;35.22;;
72882;SDS011;61017;37.812;-122.286;2023-03-01T04:10:44;134.48;;;36.78;;
72882;SDS011;61017;37.812;-122.286;2023-03-01T04:12:17;341.85;;;84.57;;
72882;SDS011;61017;37.812;-122.286;2023-03-01T04:13:49;209.00;;;54.58;;
72882;SDS011;61017;37.812;-122.286;2023-03-01T04:15:21;232.13;;;58.13;;
72882;SDS011;61017;37.812;-122.286;2023-03-01T04:16:53;189.93;;;52.05;;
72882;SDS011;61017;37.812;-122.286;2023-03-01T04:18:25;185.75;;;43.70;;
72882;SDS011;61017;37.812;-122.286;2023-03-01T04:19:59;140.25;;;35.25;;
72882;SDS011;61017;37.812;-122.286;2023-03-01T04:21:34;152.75;;;36.03;;
72882;SDS011;61017;37.812;-122.286;2023-03-01T04:23:07;119.00;;;29.35;;
72882;SDS011;61017;37.812;-122.286;2023-03-01T04:24:40;128.65;;;30.05;;
72882;SDS011;61017;37.812;-122.286;2023-03-01T04:26:12;108.05;;;29.80;;
72882;SDS011;61017;37.812;-122.286;2023-03-01T04:27:44;115.63;;;25.70;;
72882;SDS011;61017;37.812;-122.286;2023-03-01T04:29:17;103.50;;;26.95;;
72882;SDS011;61017;37.812;-122.286;2023-03-01T04:32:21;78.63;;;21.85;;
72882;SDS011;61017;37.812;-122.286;2023-03-01T04:33:54;81.93;;;18.92;;
72882;SDS011;61017;37.812;-122.286;2023-03-01T04:35:26;70.80;;;17.17;;
72882;SDS011;61017;37.812;-122.286;2023-03-01T04:36:59;68.35;;;17.58;;
72882;SDS011;61017;37.812;-122.286;2023-03-01T04:38:30;49.35;;;14.07;;
72882;SDS011;61017;37.812;-122.286;2023-03-01T04:40:02;59.05;;;14.10;;
72882;SDS011;61017;37.812;-122.286;2023-03-01T04:41:34;65.40;;;15.57;;
72882;SDS011;61017;37.812;-122.286;2023-03-01T04:43:06;43.83;;;11.93;;
72882;SDS011;61017;37.812;-122.286;2023-03-01T04:44:37;37.60;;;11.02;;
72882;SDS011;61017;37.812;-122.286;2023-03-01T04:46:11;61.40;;;14.55;;
72882;SDS011;61017;37.812;-122.286;2023-03-01T04:47:45;71.97;;;13.93;;
72882;SDS011;61017;37.812;-122.286;2023-03-01T04:49:18;50.58;;;12.55;;
72882;SDS011;61017;37.812;-122.286;2023-03-01T04:50:50;48.00;;;11.85;;
72882;SDS011;61017;37.812;-122.286;2023-03-01T04:52:22;49.33;;;12.00;;
72882;SDS011;61017;37.812;-122.286;2023-03-01T04:53:53;41.30;;;10.63;;
72882;SDS011;61017;37.812;-122.286;2023-03-01T04:55:26;41.17;;;10.77;;
72882;SDS011;61017;37.812;-122.286;2023-03-01T04:56:58;32.00;;;7.10;;
72882;SDS011;61017;37.812;-122.286;2023-03-01T04:58:30;26.97;;;6.50;;
72882;SDS011;61017;37.812;-122.286;2023-03-01T05:00:02;39.20;;;8.73;;
72882;SDS011;61017;37.812;-122.286;2023-03-01T05:01:36;29.85;;;8.98;;
72882;SDS011;61017;37.812;-122.286;2023-03-01T05:03:08;27.52;;;7.45;;
72882;SDS011;61017;37.812;-122.286;2023-03-01T05:04:40;32.90;;;7.75;;
72882;SDS011;61017;37.812;-122.286;2023-03-01T05:06:12;26.23;;;7.22;;
72882;SDS011;61017;37.812;-122.286;2023-03-01T05:07:44;25.65;;;7.13;;
72882;SDS011;61017;37.812;-122.286;2023-03-01T05:09:15;24.50;;;7.43;;
72882;SDS011;61017;37.812;-122.286;2023-03-01T05:10:49;18.92;;;6.35;;
72882;SDS011;61017;37.812;-122.286;2023-03-01T05:12:22;24.52;;;5.90;;
72882;SDS011;61017;37.812;-122.286;2023-03-01T05:13:54;23.13;;;6.03;;
72882;SDS011;61017;37.812;-122.286;2023-03-01T05:15:25;23.60;;;6.60;;
72882;SDS011;61017;37.812;-122.286;2023-03-01T05:16:59;19.42;;;5.82;;
72882;SDS011;61017;37.812;-122.286;2023-03-01T05:18:31;21.52;;;5.50;;
72882;SDS011;61017;37.812;-122.286;2023-03-01T05:20:04;16.98;;;5.05;;
72882;SDS011;61017;37.812;-122.286;2023-03-01T05:21:37;16.73;;;5.03;;
72882;SDS011;61017;37.812;-122.286;2023-03-01T05:23:14;22.75;;;5.20;;
72882;SDS011;61017;37.812;-122.286;2023-03-01T05:24:45;14.60;;;4.70;;
72882;SDS011;61017;37.812;-122.286;2023-03-01T05:26:17;12.45;;;4.43;;
72882;SDS011;61017;37.812;-122.286;2023-03-01T05:27:50;20.65;;;5.20;;
72882;SDS011;61017;37.812;-122.286;2023-03-01T05:29:22;12.02;;;4.10;;
72882;SDS011;61017;37.812;-122.286;2023-03-01T05:30:55;14.23;;;4.45;;
72882;SDS011;61017;37.812;-122.286;2023-03-01T05:32:28;14.40;;;3.70;;
72882;SDS011;61017;37.812;-122.286;2023-03-01T05:33:59;15.38;;;4.30;;
72882;SDS011;61017;37.812;-122.286;2023-03-01T05:35:32;10.27;;;3.70;;
72882;SDS011;61017;37.812;-122.286;2023-03-01T05:37:03;11.70;;;3.72;;
72882;SDS011;61017;37.812;-122.286;2023-03-01T05:38:35;11.07;;;3.72;;
72882;SDS011;61017;37.812;-122.286;2023-03-01T05:40:08;12.20;;;3.40;;
72882;SDS011;61017;37.812;-122.286;2023-03-01T05:41:41;8.15;;;3.00;;
72882;SDS011;61017;37.812;-122.286;2023-03-01T05:43:14;9.50;;;3.45;;
72882;SDS011;61017;37.812;-122.286;2023-03-01T05:44:46;11.52;;;3.00;;
72882;SDS011;61017;37.812;-122.286;2023-03-01T05:46:18;10.35;;;2.50;;
72882;SDS011;61017;37.812;-122.286;2023-03-01T05:47:50;7.38;;;2.60;;
72882;SDS011;61017;37.812;-122.286;2023-03-01T05:49:22;8.43;;;3.08;;
72882;SDS011;61017;37.812;-122.286;2023-03-01T05:50:54;8.35;;;2.60;;
72882;SDS011;61017;37.812;-122.286;2023-03-01T05:52:26;7.28;;;2.20;;
72882;SDS011;61017;37.812;-122.286;2023-03-01T05:53:57;6.60;;;2.13;;
72882;SDS011;61017;37.812;-122.286;2023-03-01T05:55:29;7.30;;;2.17;;
72882;SDS011;61017;37.812;-122.286;2023-03-01T05:57:02;5.10;;;2.13;;
72882;SDS011;61017;37.812;-122.286;2023-03-01T05:58:33;6.18;;;2.40;;
72882;SDS011;61017;37.812;-122.286;2023-03-01T06:00:05;6.15;;;2.22;;
72882;SDS011;61017;37.812;-122.286;2023-03-01T06:01:37;5.82;;;2.17;;
72882;SDS011;61017;37.812;-122.286;2023-03-01T06:03:10;5.68;;;1.77;;
72882;SDS011;61017;37.812;-122.286;2023-03-01T06:04:42;6.13;;;2.30;;
72882;SDS011;61017;37.812;-122.286;2023-03-01T06:06:14;5.88;;;2.03;;
72882;SDS011;61017;37.812;-122.286;2023-03-01T06:07:46;7.50;;;2.20;;
72882;SDS011;61017;37.812;-122.286;2023-03-01T06:09:17;6.45;;;2.00;;
72882;SDS011;61017;37.812;-122.286;2023-03-01T06:10:49;4.85;;;1.85;;
72882;SDS011;61017;37.812;-122.286;2023-03-01T06:12:20;5.05;;;1.90;;
72882;SDS011;61017;37.812;-122.286;2023-03-01T06:13:52;4.90;;;1.92;;
72882;SDS011;61017;37.812;-122.286;2023-03-01T06:15:24;4.35;;;1.60;;
72882;SDS011;61017;37.812;-122.286;2023-03-01T06:16:56;5.77;;;2.03;;
72882;SDS011;61017;37.812;-122.286;2023-03-01T06:18:28;5.13;;;1.58;;
72882;SDS011;61017;37.812;-122.286;2023-03-01T06:19:59;5.20;;;1.80;;
72882;SDS011;61017;37.812;-122.286;2023-03-01T06:21:31;5.00;;;1.75;;
72882;SDS011;61017;37.812;-122.286;2023-03-01T06:23:02;4.47;;;1.65;;
72882;SDS011;61017;37.812;-122.286;2023-03-01T06:24:34;4.70;;;1.58;;
72882;SDS011;61017;37.812;-122.286;2023-03-01T06:26:06;7.85;;;1.80;;
72882;SDS011;61017;37.812;-122.286;2023-03-01T06:27:38;4.28;;;1.30;;
72882;SDS011;61017;37.812;-122.286;2023-03-01T06:29:10;3.20;;;1.45;;
72882;SDS011;61017;37.812;-122.286;2023-03-01T06:30:42;5.28;;;1.75;;
72882;SDS011;61017;37.812;-122.286;2023-03-01T06:32:14;3.15;;;1.30;;
72882;SDS011;61017;37.812;-122.286;2023-03-01T06:33:46;4.03;;;1.30;;
72882;SDS011;61017;37.812;-122.286;2023-03-01T06:35:18;4.38;;;1.10;;
72882;SDS011;61017;37.812;-122.286;2023-03-01T06:36:50;3.65;;;1.30;;
72882;SDS011;61017;37.812;-122.286;2023-03-01T06:38:22;4.28;;;1.15;;
72882;SDS011;61017;37.812;-122.286;2023-03-01T06:39:57;2.83;;;1.17;;
72882;SDS011;61017;37.812;-122.286;2023-03-01T06:41:28;3.17;;;1.30;;
72882;SDS011;61017;37.812;-122.286;2023-03-01T06:43:00;4.60;;;1.52;;
72882;SDS011;61017;37.812;-122.286;2023-03-01T06:44:32;4.13;;;1.42;;
72882;SDS011;61017;37.812;-122.286;2023-03-01T06:46:04;3.50;;;1.17;;
72882;SDS011;61017;37.812;-122.286;2023-03-01T06:47:37;3.75;;;1.13;;
72882;SDS011;61017;37.812;-122.286;2023-03-01T06:49:09;2.60;;;0.98;;
72882;SDS011;61017;37.812;-122.286;2023-03-01T06:50:40;2.47;;;0.90;;
72882;SDS011;61017;37.812;-122.286;2023-03-01T06:52:12;3.22;;;1.17;;
72882;SDS011;61017;37.812;-122.286;2023-03-01T06:53:45;2.50;;;1.10;;
72882;SDS011;61017;37.812;-122.286;2023-03-01T06:55:17;3.45;;;1.13;;
72882;SDS011;61017;37.812;-122.286;2023-03-01T06:56:49;5.85;;;1.33;;
72882;SDS011;61017;37.812;-122.286;2023-03-01T06:58:21;3.40;;;1.10;;
72882;SDS011;61017;37.812;-122.286;2023-03-01T06:59:52;4.03;;;1.20;;
72882;SDS011;61017;37.812;-122.286;2023-03-01T07:01:24;4.65;;;1.20;;
72882;SDS011;61017;37.812;-122.286;2023-03-01T07:02:59;3.72;;;1.10;;
72882;SDS011;61017;37.812;-122.286;2023-03-01T07:04:31;3.38;;;1.10;;
72882;SDS011;61017;37.812;-122.286;2023-03-01T07:06:02;3.50;;;1.20;;
72882;SDS011;61017;37.812;-122.286;2023-03-01T07:07:34;2.55;;;1.10;;
72882;SDS011;61017;37.812;-122.286;2023-03-01T07:09:06;4.20;;;1.30;;
72882;SDS011;61017;37.812;-122.286;2023-03-01T07:10:37;3.22;;;1.10;;
72882;SDS011;61017;37.812;-122.286;2023-03-01T07:12:09;4.10;;;0.90;;
72882;SDS011;61017;37.812;-122.286;2023-03-01T07:13:43;4.38;;;1.10;;
72882;SDS011;61017;37.812;-122.286;2023-03-01T07:15:15;3.10;;;1.10;;
72882;SDS011;61017;37.812;-122.286;2023-03-01T07:16:50;2.78;;;1.10;;
72882;SDS011;61017;37.812;-122.286;2023-03-01T07:18:22;2.90;;;0.95;;
72882;SDS011;61017;37.812;-122.286;2023-03-01T07:19:55;3.72;;;1.13;;
72882;SDS011;61017;37.812;-122.286;2023-03-01T07:21:27;3.33;;;0.90;;
72882;SDS011;61017;37.812;-122.286;2023-03-01T07:22:59;3.42;;;1.00;;
72882;SDS011;61017;37.812;-122.286;2023-03-01T07:24:30;3.10;;;1.23;;
72882;SDS011;61017;37.812;-122.286;2023-03-01T07:26:02;4.50;;;1.75;;
72882;SDS011;61017;37.812;-122.286;2023-03-01T07:27:34;4.97;;;1.35;;
72882;SDS011;61017;37.812;-122.286;2023-03-01T07:29:06;3.65;;;1.35;;
72882;SDS011;61017;37.812;-122.286;2023-03-01T07:30:39;3.55;;;1.17;;
72882;SDS011;61017;37.812;-122.286;2023-03-01T07:32:11;4.65;;;1.30;;
72882;SDS011;61017;37.812;-122.286;2023-03-01T07:33:43;3.50;;;1.38;;
72882;SDS011;61017;37.812;-122.286;2023-03-01T07:35:14;4.38;;;1.15;;
72882;SDS011;61017;37.812;-122.286;2023-03-01T07:36:46;5.60;;;1.40;;
72882;SDS011;61017;37.812;-122.286;2023-03-01T07:38:18;4.28;;;1.30;;
72882;SDS011;61017;37.812;-122.286;2023-03-01T07:39:49;2.95;;;1.10;;
72882;SDS011;61017;37.812;-122.286;2023-03-01T07:41:21;3.95;;;1.40;;
72882;SDS011;61017;37.812;-122.286;2023-03-01T07:42:56;3.85;;;1.20;;
72882;SDS011;61017;37.812;-122.286;2023-03-01T07:44:28;4.05;;;1.20;;
72882;SDS011;61017;37.812;-122.286;2023-03-01T07:46:00;4.38;;;1.25;;
72882;SDS011;61017;37.812;-122.286;2023-03-01T07:47:32;2.67;;;0.90;;
72882;SDS011;61017;37.812;-122.286;2023-03-01T07:49:04;3.08;;;0.95;;
72882;SDS011;61017;37.812;-122.286;2023-03-01T07:50:35;4.45;;;0.95;;
72882;SDS011;61017;37.812;-122.286;2023-03-01T07:52:09;2.20;;;0.85;;
72882;SDS011;61017;37.812;-122.286;2023-03-01T07:53:41;2.95;;;0.90;;
72882;SDS011;61017;37.812;-122.286;2023-03-01T07:55:16;4.07;;;0.90;;
72882;SDS011;61017;37.812;-122.286;2023-03-01T07:56:48;3.22;;;0.85;;
72882;SDS011;61017;37.812;-122.286;2023-03-01T07:58:19;4.35;;;1.00;;
72882;SDS011;61017;37.812;-122.286;2023-03-01T07:59:53;4.63;;;0.93;;
72882;SDS011;61017;37.812;-122.286;2023-03-01T08:01:28;3.22;;;1.02;;
72882;SDS011;61017;37.812;-122.286;2023-03-01T08:03:00;2.40;;;0.80;;
72882;SDS011;61017;37.812;-122.286;2023-03-01T08:04:32;2.28;;;0.70;;
72882;SDS011;61017;37.812;-122.286;2023-03-01T08:06:05;4.32;;;0.85;;
72882;SDS011;61017;37.812;-122.286;2023-03-01T08:07:56;2.83;;;0.80;;
72882;SDS011;61017;37.812;-122.286;2023-03-01T08:09:27;2.83;;;0.90;;
72882;SDS011;61017;37.812;-122.286;2023-03-01T08:11:00;3.25;;;0.90;;
72882;SDS011;61017;37.812;-122.286;2023-03-01T08:12:33;2.97;;;1.00;;
72882;SDS011;61017;37.812;-122.286;2023-03-01T08:14:05;2.75;;;0.80;;
72882;SDS011;61017;37.812;-122.286;2023-03-01T08:15:37;4.03;;;0.80;;
72882;SDS011;61017;37.812;-122.286;2023-03-01T08:17:09;2.83;;;0.80;;
72882;SDS011;61017;37.812;-122.286;2023-03-01T08:18:41;3.95;;;0.93;;
72882;SDS011;61017;37.812;-122.286;2023-03-01T08:20:13;4.85;;;1.08;;
72882;SDS011;61017;37.812;-122.286;2023-03-01T08:21:45;2.13;;;0.70;;
72882;SDS011;61017;37.812;-122.286;2023-03-01T08:23:38;3.03;;;0.90;;
72882;SDS011;61017;37.812;-122.286;2023-03-01T08:25:10;3.08;;;1.08;;
72882;SDS011;61017;37.812;-122.286;2023-03-01T08:26:41;1.98;;;0.77;;
72882;SDS011;61017;37.812;-122.286;2023-03-01T08:28:13;2.90;;;0.77;;
72882;SDS011;61017;37.812;-122.286;2023-03-01T08:29:45;4.47;;;0.85;;
72882;SDS011;61017;37.812;-122.286;2023-03-01T08:31:18;2.63;;;0.82;;
72882;SDS011;61017;37.812;-122.286;2023-03-01T08:32:56;2.95;;;0.60;;
72882;SDS011;61017;37.812;-122.286;2023-03-01T08:34:27;2.72;;;0.70;;
72882;SDS011;61017;37.812;-122.286;2023-03-01T08:36:03;3.33;;;0.77;;
72882;SDS011;61017;37.812;-122.286;2023-03-01T08:37:36;2.47;;;0.85;;
72882;SDS011;61017;37.812;-122.286;2023-03-01T08:39:09;2.22;;;0.85;;
72882;SDS011;61017;37.812;-122.286;2023-03-01T08:40:42;3.78;;;0.80;;
72882;SDS011;61017;37.812;-122.286;2023-03-01T08:42:14;2.65;;;0.80;;
72882;SDS011;61017;37.812;-122.286;2023-03-01T08:43:46;5.00;;;0.90;;
72882;SDS011;61017;37.812;-122.286;2023-03-01T08:45:18;3.45;;;0.70;;
72882;SDS011;61017;37.812;-122.286;2023-03-01T08:47:04;3.58;;;0.85;;
72882;SDS011;61017;37.812;-122.286;2023-03-01T08:48:39;4.45;;;1.15;;
72882;SDS011;61017;37.812;-122.286;2023-03-01T08:50:16;3.50;;;0.70;;
72882;SDS011;61017;37.812;-122.286;2023-03-01T08:51:48;4.38;;;1.00;;
72882;SDS011;61017;37.812;-122.286;2023-03-01T08:53:22;4.25;;;0.90;;
72882;SDS011;61017;37.812;-122.286;2023-03-01T08:54:54;4.93;;;0.95;;
72882;SDS011;61017;37.812;-122.286;2023-03-01T08:56:26;2.72;;;0.90;;
72882;SDS011;61017;37.812;-122.286;2023-03-01T08:57:58;3.38;;;0.70;;
72882;SDS011;61017;37.812;-122.286;2023-03-01T08:59:30;3.40;;;0.80;;
72882;SDS011;61017;37.812;-122.286;2023-03-01T09:01:11;3.80;;;0.95;;
72882;SDS011;61017;37.812;-122.286;2023-03-01T09:02:44;1.83;;;0.70;;
72882;SDS011;61017;37.812;-122.286;2023-03-01T09:04:16;5.13;;;0.80;;
72882;SDS011;61017;37.812;-122.286;2023-03-01T09:05:48;2.40;;;0.73;;
72882;SDS011;61017;37.812;-122.286;2023-03-01T09:07:19;3.60;;;1.00;;
72882;SDS011;61017;37.812;-122.286;2023-03-01T09:08:51;4.80;;;0.93;;